createdAt,value
2022-09-09T00:01:32.479Z,16.10
2022-09-09T00:04:08.625Z,16.10
2022-09-09T00:06:45.071Z,16.10
2022-09-09T00:09:17.909Z,16.00
2022-09-09T00:11:51.677Z,16.00
2022-09-09T00:14:27.880Z,16.00
2022-09-09T00:17:03.074Z,16.00
2022-09-09T00:19:39.412Z,16.00
2022-09-09T00:22:17.716Z,16.00
2022-09-09T00:24:49.793Z,16.00
2022-09-09T00:27:26.411Z,15.90
2022-09-09T00:29:59.728Z,15.90
2022-09-09T00:32:32.451Z,15.90
2022-09-09T00:35:06.339Z,15.90
2022-09-09T00:37:36.043Z,15.90
2022-09-09T00:40:24.353Z,15.90
2022-09-09T00:43:16.374Z,15.90
2022-09-09T00:46:01.508Z,15.90
2022-09-09T00:48:38.021Z,15.90
2022-09-09T00:51:13.744Z,15.90
2022-09-09T00:54:13.433Z,15.80
2022-09-09T00:56:49.148Z,15.80
2022-09-09T00:59:29.926Z,15.80
2022-09-09T01:01:59.326Z,15.80
2022-09-09T01:04:37.145Z,15.80
2022-09-09T01:07:15.263Z,15.70
2022-09-09T01:09:53.740Z,15.70
2022-09-09T01:12:32.242Z,15.70
2022-09-09T01:15:10.034Z,15.70
2022-09-09T01:17:53.403Z,15.70
2022-09-09T01:20:26.750Z,15.60
2022-09-09T01:23:28.042Z,15.60
2022-09-09T01:26:30.196Z,15.60
2022-09-09T01:29:02.540Z,15.60
2022-09-09T01:31:41.876Z,15.60
2022-09-09T01:34:13.258Z,15.50
2022-09-09T01:36:47.446Z,15.50
2022-09-09T01:39:16.007Z,15.60
2022-09-09T01:41:47.017Z,15.60
2022-09-09T01:44:19.153Z,15.60
2022-09-09T01:49:30.270Z,15.50
2022-09-09T01:51:59.989Z,15.50
2022-09-09T01:54:35.512Z,15.60
2022-09-09T01:57:20.209Z,15.60
2022-09-09T02:00:04.518Z,15.50
2022-09-09T02:02:50.740Z,15.50
2022-09-09T02:05:36.237Z,15.50
2022-09-09T02:08:09.350Z,15.50
2022-09-09T02:10:58.518Z,15.50
2022-09-09T02:13:41.166Z,15.50
2022-09-09T02:16:18.030Z,15.50
2022-09-09T02:18:53.281Z,15.50
2022-09-09T02:21:29.789Z,15.50
2022-09-09T02:24:01.035Z,15.50
2022-09-09T02:26:33.452Z,15.50
2022-09-09T02:29:10.102Z,15.60
2022-09-09T02:31:39.041Z,15.60
2022-09-09T02:34:13.083Z,15.60
2022-09-09T02:36:44.350Z,15.60
2022-09-09T02:39:13.388Z,15.60
2022-09-09T02:41:43.694Z,15.70
2022-09-09T02:44:16.754Z,15.70
2022-09-09T02:46:58.920Z,15.70
2022-09-09T02:49:35.633Z,15.70
2022-09-09T02:52:09.027Z,15.70
2022-09-09T02:54:40.766Z,15.80
2022-09-09T02:57:14.901Z,15.80
2022-09-09T02:59:46.812Z,15.80
2022-09-09T03:02:15.237Z,15.70
2022-09-09T03:04:51.671Z,15.80
2022-09-09T03:07:22.203Z,15.80
2022-09-09T03:09:55.814Z,15.80
2022-09-09T03:12:26.458Z,15.90
2022-09-09T03:14:56.369Z,15.90
2022-09-09T03:17:25.627Z,15.90
2022-09-09T03:19:57.109Z,15.90
2022-09-09T03:22:26.227Z,15.90
2022-09-09T03:24:54.849Z,15.90
2022-09-09T03:27:24.534Z,15.80
2022-09-09T03:29:55.176Z,15.90
2022-09-09T03:32:27.393Z,15.90
2022-09-09T03:34:58.240Z,15.90
2022-09-09T03:37:27.229Z,15.80
2022-09-09T03:39:56.439Z,15.80
2022-09-09T03:42:25.436Z,15.80
2022-09-09T03:44:58.775Z,15.80
2022-09-09T03:47:27.602Z,15.80
2022-09-09T03:50:02.270Z,15.70
2022-09-09T03:52:31.721Z,15.70
2022-09-09T03:55:00.253Z,15.70
2022-09-09T03:57:30.926Z,15.70
2022-09-09T04:00:02.032Z,15.70
2022-09-09T04:02:34.200Z,15.60
2022-09-09T04:05:02.646Z,15.70
2022-09-09T04:07:31.231Z,15.70
2022-09-09T04:09:59.480Z,15.60
2022-09-09T04:12:27.754Z,15.60
2022-09-09T04:14:56.265Z,15.60
2022-09-09T04:17:26.133Z,15.60
2022-09-09T04:19:54.451Z,15.60
2022-09-09T04:22:24.057Z,15.60
2022-09-09T04:24:52.868Z,15.60
2022-09-09T04:27:22.160Z,15.60
2022-09-09T04:29:50.487Z,15.50
2022-09-09T04:32:18.775Z,15.50
2022-09-09T04:34:49.808Z,15.50
2022-09-09T04:37:18.092Z,15.50
2022-09-09T04:39:46.738Z,15.50
2022-09-09T04:42:14.997Z,15.50
2022-09-09T04:44:44.730Z,15.50
2022-09-09T04:47:28.097Z,15.50
2022-09-09T04:49:57.929Z,15.40
2022-09-09T04:52:27.436Z,15.50
2022-09-09T04:54:56.122Z,15.50
2022-09-09T04:57:25.380Z,15.50
2022-09-09T05:00:15.325Z,15.40
2022-09-09T05:02:43.807Z,15.40
2022-09-09T05:05:13.636Z,15.40
2022-09-09T05:07:43.102Z,15.40
2022-09-09T05:10:11.699Z,15.40
2022-09-09T05:12:40.074Z,15.40
2022-09-09T05:15:09.546Z,15.40
2022-09-09T05:17:37.869Z,15.40
2022-09-09T05:20:10.217Z,15.40
2022-09-09T05:22:41.398Z,15.40
2022-09-09T05:25:10.419Z,15.40
2022-09-09T05:27:39.507Z,15.40
2022-09-09T05:30:09.315Z,15.40
2022-09-09T05:32:37.598Z,15.40
2022-09-09T05:35:06.584Z,15.30
2022-09-09T05:37:35.983Z,15.40
2022-09-09T05:40:06.616Z,15.30
2022-09-09T05:42:35.439Z,15.30
2022-09-09T05:45:03.921Z,15.30
2022-09-09T05:47:34.489Z,15.30
2022-09-09T05:50:16.090Z,15.30
2022-09-09T05:53:15.323Z,15.30
2022-09-09T05:56:01.522Z,15.40
2022-09-09T05:58:31.978Z,15.40
2022-09-09T06:01:09.691Z,15.30
2022-09-09T06:03:52.193Z,15.40
2022-09-09T06:06:26.913Z,15.40
2022-09-09T06:09:11.428Z,15.40
2022-09-09T06:12:07.708Z,15.40
2022-09-09T06:15:12.130Z,15.40
2022-09-09T06:17:42.689Z,15.40
2022-09-09T06:20:11.508Z,15.40
2022-09-09T06:23:00.399Z,15.40
2022-09-09T06:25:32.193Z,15.50
2022-09-09T06:28:17.182Z,15.40
2022-09-09T06:30:51.252Z,15.50
2022-09-09T06:33:35.763Z,15.50
2022-09-09T06:36:23.397Z,15.60
2022-09-09T06:39:16.552Z,15.60
2022-09-09T06:41:48.296Z,15.60
2022-09-09T06:44:57.799Z,15.70
2022-09-09T06:47:39.354Z,15.70
2022-09-09T06:50:12.395Z,15.70
2022-09-09T06:52:41.764Z,15.70
2022-09-09T06:55:11.945Z,15.80
2022-09-09T06:57:40.551Z,15.90
2022-09-09T07:00:16.543Z,16.00
2022-09-09T07:02:45.829Z,16.10
2022-09-09T07:05:27.816Z,16.30
2022-09-09T07:08:11.345Z,16.40
2022-09-09T07:10:40.230Z,16.60
2022-09-09T07:13:08.667Z,16.70
2022-09-09T07:15:42.777Z,16.80
2022-09-09T07:18:12.200Z,16.90
2022-09-09T07:20:40.705Z,16.90
2022-09-09T07:23:09.221Z,17.00
2022-09-09T07:25:37.780Z,17.00
2022-09-09T07:28:06.428Z,17.10
2022-09-09T07:30:35.305Z,17.10
2022-09-09T07:33:05.538Z,17.10
2022-09-09T07:36:11.920Z,17.20
2022-09-09T07:38:42.015Z,17.30
2022-09-09T07:41:13.026Z,17.30
2022-09-09T07:44:07.727Z,17.30
2022-09-09T07:46:38.168Z,17.20
2022-09-09T07:49:09.506Z,17.40
2022-09-09T07:51:40.228Z,17.90
2022-09-09T07:54:12.251Z,18.00
2022-09-09T07:56:44.379Z,18.70
2022-09-09T07:59:14.722Z,19.50
2022-09-09T08:01:47.600Z,19.60
2022-09-09T08:04:22.084Z,19.30
2022-09-09T08:06:53.836Z,19.10
2022-09-09T08:09:26.132Z,18.90
2022-09-09T08:11:55.002Z,18.80
2022-09-09T08:14:24.129Z,18.70
2022-09-09T08:16:55.249Z,18.70
2022-09-09T08:19:27.293Z,18.50
2022-09-09T08:21:56.267Z,18.50
2022-09-09T08:24:24.785Z,18.40
2022-09-09T08:27:02.645Z,18.30
2022-09-09T08:29:46.834Z,18.30
2022-09-09T08:32:17.618Z,18.30
2022-09-09T08:34:48.944Z,18.30
2022-09-09T08:37:51.652Z,18.30
2022-09-09T08:40:28.854Z,18.30
2022-09-09T08:43:02.665Z,18.40
2022-09-09T08:45:37.642Z,18.40
2022-09-09T08:48:24.035Z,18.50
2022-09-09T08:51:01.670Z,18.50
2022-09-09T08:53:39.066Z,18.70
2022-09-09T08:56:15.232Z,19.30
2022-09-09T08:58:51.407Z,19.80
2022-09-09T09:01:51.154Z,19.90
2022-09-09T09:04:42.637Z,20.00
2022-09-09T09:10:41.258Z,20.00
2022-09-09T09:13:17.355Z,20.10
2022-09-09T09:15:52.472Z,20.00
2022-09-09T09:18:21.514Z,19.90
2022-09-09T09:21:05.634Z,19.80
2022-09-09T09:23:45.126Z,19.80
2022-09-09T09:26:14.280Z,19.70
2022-09-09T09:28:44.807Z,20.40
2022-09-09T09:31:18.746Z,20.80
2022-09-09T09:33:51.357Z,21.60
2022-09-09T09:37:12.389Z,22.10
2022-09-09T09:42:31.205Z,23.40
2022-09-09T09:48:07.352Z,22.80
2022-09-09T09:50:48.548Z,22.70
2022-09-09T09:53:24.707Z,22.60
2022-09-09T09:55:59.915Z,23.50
2022-09-09T09:58:33.324Z,24.10
2022-09-09T10:01:03.122Z,24.70
2022-09-09T10:03:38.493Z,25.40
2022-09-09T10:06:07.862Z,25.60
2022-09-09T10:08:47.472Z,25.60
2022-09-09T10:11:32.112Z,25.80
2022-09-09T10:14:09.667Z,25.40
2022-09-09T10:16:50.530Z,24.90
2022-09-09T10:19:28.682Z,24.40
2022-09-09T10:22:20.594Z,23.90
2022-09-09T10:25:09.398Z,23.40
2022-09-09T10:27:55.526Z,23.20
2022-09-09T10:30:35.280Z,22.90
2022-09-09T10:36:24.189Z,22.70
2022-09-09T10:39:00.247Z,22.60
2022-09-09T10:41:47.048Z,22.20
2022-09-09T10:44:28.924Z,21.90
2022-09-09T10:47:28.094Z,21.80
2022-09-09T10:50:13.726Z,21.70
2022-09-09T10:52:49.936Z,21.70
2022-09-09T10:55:21.471Z,22.00
2022-09-09T10:57:53.197Z,23.00
2022-09-09T11:00:25.330Z,23.20
2022-09-09T11:02:58.302Z,23.30
2022-09-09T11:05:34.947Z,23.50
2022-09-09T11:08:07.426Z,23.50
2022-09-09T11:10:43.755Z,23.30
2022-09-09T11:13:18.442Z,23.10
2022-09-09T11:15:53.179Z,23.20
2022-09-09T11:18:24.777Z,23.50
2022-09-09T11:21:01.627Z,23.30
2022-09-09T11:23:44.262Z,23.30
2022-09-09T11:26:20.874Z,23.00
2022-09-09T11:29:05.031Z,22.70
2022-09-09T11:31:48.442Z,22.70
2022-09-09T11:34:32.567Z,22.80
2022-09-09T11:37:21.033Z,22.80
2022-09-09T11:40:08.669Z,22.90
2022-09-09T11:42:37.270Z,22.70
2022-09-09T11:45:19.538Z,22.70
2022-09-09T11:47:56.672Z,22.90
2022-09-09T11:50:41.189Z,23.10
2022-09-09T11:53:24.513Z,23.10
2022-09-09T11:56:14.344Z,23.40
2022-09-09T11:58:56.481Z,23.30
2022-09-09T12:01:36.914Z,23.40
2022-09-09T12:04:19.939Z,23.40
2022-09-09T12:06:54.589Z,23.50
2022-09-09T12:09:28.867Z,23.60
2022-09-09T12:12:09.221Z,23.80
2022-09-09T12:14:40.089Z,23.90
2022-09-09T12:17:23.057Z,24.20
2022-09-09T12:20:07.053Z,24.30
2022-09-09T12:22:42.174Z,24.50
2022-09-09T12:25:23.739Z,24.70
2022-09-09T12:28:04.060Z,24.80
2022-09-09T12:30:37.347Z,24.80
2022-09-09T12:33:12.831Z,24.60
2022-09-09T12:36:05.848Z,24.70
2022-09-09T12:38:36.741Z,24.70
2022-09-09T12:41:05.799Z,24.70
2022-09-09T12:44:06.844Z,24.60
2022-09-09T12:46:38.360Z,24.40
2022-09-09T12:49:07.550Z,24.30
2022-09-09T12:51:38.641Z,24.10
2022-09-09T12:54:07.317Z,23.90
2022-09-09T12:56:36.313Z,23.80
2022-09-09T12:59:04.631Z,23.90
2022-09-09T13:01:34.522Z,23.90
2022-09-09T13:04:03.545Z,24.00
2022-09-09T13:06:33.250Z,23.90
2022-09-09T13:09:04.218Z,24.00
2022-09-09T13:11:39.280Z,24.10
2022-09-09T13:14:09.199Z,23.90
2022-09-09T13:16:42.950Z,23.80
2022-09-09T13:19:16.660Z,23.60
2022-09-09T13:21:45.518Z,23.30
2022-09-09T13:24:30.364Z,22.90
2022-09-09T13:26:59.848Z,22.50
2022-09-09T13:29:28.229Z,22.20
2022-09-09T13:32:06.143Z,21.90
2022-09-09T13:34:36.330Z,21.60
2022-09-09T13:37:07.434Z,21.20
2022-09-09T13:39:39.313Z,20.90
2022-09-09T13:42:09.264Z,20.70
2022-09-09T13:44:42.590Z,20.40
2022-09-09T13:47:21.295Z,19.90
2022-09-09T13:49:49.856Z,19.70
2022-09-09T13:52:20.765Z,19.60
2022-09-09T13:54:52.185Z,19.70
2022-09-09T13:57:23.411Z,19.70
2022-09-09T14:00:04.522Z,19.70
2022-09-09T14:02:33.614Z,19.80
2022-09-09T14:05:01.989Z,19.90
2022-09-09T14:07:30.471Z,20.00
2022-09-09T14:10:01.250Z,20.10
2022-09-09T14:12:29.970Z,20.10
2022-09-09T14:14:58.295Z,20.30
2022-09-09T14:17:31.479Z,20.30
2022-09-09T14:20:00.344Z,20.40
2022-09-09T14:22:29.508Z,20.40
2022-09-09T14:24:59.640Z,20.40
2022-09-09T14:27:29.396Z,20.20
2022-09-09T14:32:41.108Z,20.00
2022-09-09T14:35:10.390Z,19.90
2022-09-09T14:37:40.262Z,19.60
2022-09-09T14:40:12.181Z,19.50
2022-09-09T14:42:41.374Z,19.40
2022-09-09T14:47:53.528Z,19.40
2022-09-09T14:50:22.640Z,19.50
2022-09-09T14:53:05.149Z,19.60
2022-09-09T14:55:35.114Z,19.70
2022-09-09T14:58:03.601Z,19.80
2022-09-09T15:00:32.902Z,19.80
2022-09-09T15:03:01.244Z,19.80
2022-09-09T15:05:29.948Z,19.70
2022-09-09T15:07:59.582Z,19.70
2022-09-09T15:10:27.982Z,19.70
2022-09-09T15:12:58.318Z,19.60
2022-09-09T15:15:27.827Z,19.70
2022-09-09T15:17:56.128Z,19.70
2022-09-09T15:20:24.446Z,19.60
2022-09-09T15:22:53.764Z,19.50
2022-09-09T15:25:22.841Z,19.60
2022-09-09T15:27:51.206Z,19.60
2022-09-09T15:30:21.100Z,19.60
2022-09-09T15:32:49.979Z,19.70
2022-09-09T15:35:18.581Z,19.80
2022-09-09T15:37:47.153Z,20.00
2022-09-09T15:40:15.684Z,20.00
2022-09-09T15:42:44.045Z,20.00
2022-09-09T15:45:26.690Z,20.10
2022-09-09T15:47:56.398Z,20.00
2022-09-09T15:50:24.742Z,20.10
2022-09-09T15:52:53.935Z,20.10
2022-09-09T15:55:23.221Z,20.00
2022-09-09T15:57:53.133Z,20.10
2022-09-09T16:00:22.043Z,20.10
2022-09-09T16:02:51.166Z,20.20
2022-09-09T16:05:21.868Z,20.20
2022-09-09T16:07:50.320Z,20.20
2022-09-09T16:10:19.241Z,20.10
2022-09-09T16:12:47.716Z,20.10
2022-09-09T16:15:16.232Z,20.00
2022-09-09T16:17:45.670Z,20.10
2022-09-09T16:20:15.563Z,20.00
2022-09-09T16:22:45.566Z,19.90
2022-09-09T16:25:37.072Z,19.80
2022-09-09T16:28:05.397Z,19.70
2022-09-09T16:30:33.789Z,19.70
2022-09-09T16:33:02.548Z,19.70
2022-09-09T16:35:31.037Z,19.70
2022-09-09T16:38:01.501Z,19.70
2022-09-09T16:40:29.960Z,19.80
2022-09-09T16:43:00.721Z,19.80
2022-09-09T16:45:29.112Z,19.80
2022-09-09T16:47:57.431Z,19.80
2022-09-09T16:50:25.852Z,19.80
2022-09-09T16:53:16.054Z,19.80
2022-09-09T16:55:45.293Z,19.80
2022-09-09T16:58:13.776Z,19.80
2022-09-09T17:00:42.134Z,19.80
2022-09-09T17:03:14.939Z,19.70
2022-09-09T17:05:44.384Z,19.60
2022-09-09T17:08:12.945Z,19.60
2022-09-09T17:10:44.693Z,19.50
2022-09-09T17:13:13.582Z,19.50
2022-09-09T17:15:48.612Z,19.40
2022-09-09T17:18:17.234Z,19.30
2022-09-09T17:20:47.483Z,19.10
2022-09-09T17:23:16.547Z,19.00
2022-09-09T17:25:46.870Z,18.80
2022-09-09T17:28:16.004Z,18.70
2022-09-09T17:30:44.388Z,18.60
2022-09-09T17:33:13.827Z,18.50
2022-09-09T17:36:35.264Z,18.50
2022-09-09T17:39:04.449Z,18.40
2022-09-09T17:41:35.843Z,18.50
2022-09-09T17:44:05.072Z,18.50
2022-09-09T17:46:36.034Z,18.50
2022-09-09T17:49:20.672Z,18.50
2022-09-09T17:51:49.130Z,18.50
2022-09-09T17:54:20.317Z,18.50
2022-09-09T17:56:51.024Z,18.50
2022-09-09T17:59:29.064Z,18.50
2022-09-09T18:01:57.997Z,18.50
2022-09-09T18:04:26.698Z,18.40
2022-09-09T18:06:56.477Z,18.40
2022-09-09T18:09:27.101Z,18.40
2022-09-09T18:11:58.758Z,18.30
2022-09-09T18:14:30.145Z,18.30
2022-09-09T18:16:59.537Z,18.30
2022-09-09T18:19:30.785Z,18.20
2022-09-09T18:22:07.685Z,18.20
2022-09-09T18:24:36.410Z,18.20
2022-09-09T18:27:29.016Z,18.20
2022-09-09T18:29:57.593Z,18.20
2022-09-09T18:32:26.981Z,18.20
2022-09-09T18:34:59.061Z,18.10
2022-09-09T18:37:28.869Z,18.20
2022-09-09T18:39:59.855Z,18.10
2022-09-09T18:42:30.204Z,18.20
2022-09-09T18:44:58.666Z,18.10
2022-09-09T18:47:27.305Z,18.10
2022-09-09T18:50:02.782Z,18.10
2022-09-09T18:52:37.012Z,18.10
2022-09-09T18:55:06.695Z,18.10
2022-09-09T18:57:39.511Z,18.10
2022-09-09T19:00:10.162Z,18.00
2022-09-09T19:02:39.174Z,18.00
2022-09-09T19:05:10.593Z,18.00
2022-09-09T19:07:41.444Z,18.00
2022-09-09T19:10:10.599Z,18.00
2022-09-09T19:12:42.594Z,18.00
2022-09-09T19:15:11.664Z,18.00
2022-09-09T19:17:42.116Z,18.00
2022-09-09T19:20:11.793Z,18.00
2022-09-09T19:22:40.607Z,18.00
2022-09-09T19:25:11.512Z,18.00
2022-09-09T19:27:41.392Z,18.00
2022-09-09T19:30:11.323Z,18.00
2022-09-09T19:32:53.105Z,18.00
2022-09-09T19:35:26.123Z,18.00
2022-09-09T19:38:19.728Z,18.00
2022-09-09T19:40:48.096Z,18.00
2022-09-09T19:43:18.026Z,18.00
2022-09-09T19:45:57.176Z,18.00
2022-09-09T19:48:26.958Z,18.00
2022-09-09T19:50:55.641Z,17.90
2022-09-09T19:53:24.026Z,17.90
2022-09-09T19:55:52.395Z,17.80
2022-09-09T19:58:22.039Z,17.80
2022-09-09T20:00:50.516Z,17.80
2022-09-09T20:03:19.977Z,17.80
2022-09-09T20:05:50.004Z,17.70
2022-09-09T20:08:18.358Z,17.70
2022-09-09T20:10:54.354Z,17.70
2022-09-09T20:13:24.429Z,17.70
2022-09-09T20:16:00.310Z,17.60
2022-09-09T20:18:31.169Z,17.60
2022-09-09T20:21:00.848Z,17.50
2022-09-09T20:23:29.921Z,17.50
2022-09-09T20:26:03.003Z,17.50
2022-09-09T20:28:33.004Z,17.50
2022-09-09T20:31:05.435Z,17.50
2022-09-09T20:33:34.297Z,17.40
2022-09-09T20:36:11.606Z,17.40
2022-09-09T20:38:43.253Z,17.40
2022-09-09T20:41:14.394Z,17.40
2022-09-09T20:43:49.229Z,17.30
2022-09-09T20:46:19.019Z,17.30
2022-09-09T20:48:48.471Z,17.30
2022-09-09T20:51:17.680Z,17.20
2022-09-09T20:53:45.978Z,17.20
2022-09-09T20:56:16.825Z,17.20
2022-09-09T20:58:45.327Z,17.20
2022-09-09T21:01:18.230Z,17.20
2022-09-09T21:03:46.944Z,17.20
2022-09-09T21:06:17.131Z,17.20
2022-09-09T21:08:45.707Z,17.10
2022-09-09T21:11:14.301Z,17.10
2022-09-09T21:13:42.728Z,17.10
2022-09-09T21:16:14.720Z,17.10
2022-09-09T21:18:44.828Z,17.10
2022-09-09T21:21:13.335Z,17.00
2022-09-09T21:23:42.059Z,17.00
2022-09-09T21:26:10.831Z,17.00
2022-09-09T21:28:39.554Z,16.90
2022-09-09T21:31:09.067Z,16.90
2022-09-09T21:33:38.416Z,16.90
2022-09-09T21:36:09.464Z,16.80
2022-09-09T21:38:40.021Z,16.80
2022-09-09T21:41:09.811Z,16.80
2022-09-09T21:43:38.025Z,16.70
2022-09-09T21:46:08.087Z,16.70
2022-09-09T21:48:36.401Z,16.70
2022-09-09T21:51:06.088Z,16.60
2022-09-09T21:53:36.037Z,16.60
2022-09-09T21:56:06.150Z,16.60
2022-09-09T21:58:34.562Z,16.50
2022-09-09T22:01:03.311Z,16.50
2022-09-09T22:03:33.378Z,16.40
2022-09-09T22:06:06.462Z,16.40
2022-09-09T22:08:36.781Z,16.40
2022-09-09T22:11:08.869Z,16.40
2022-09-09T22:13:39.125Z,16.30
2022-09-09T22:16:09.305Z,16.30
2022-09-09T22:21:20.582Z,16.20
2022-09-09T22:23:54.286Z,16.10
2022-09-09T22:26:22.610Z,16.20
2022-09-09T22:28:50.848Z,16.10
2022-09-09T22:31:19.479Z,16.10
2022-09-09T22:33:47.997Z,16.10
2022-09-09T22:36:16.248Z,16.00
2022-09-09T22:38:44.456Z,16.00
2022-09-09T22:41:14.456Z,16.00
2022-09-09T22:43:43.726Z,16.00
2022-09-09T22:46:12.407Z,16.00
2022-09-09T22:48:41.147Z,15.90
2022-09-09T22:51:12.094Z,15.90
2022-09-09T22:53:41.873Z,15.90
2022-09-09T22:56:15.618Z,15.80
2022-09-09T22:58:44.182Z,15.80
2022-09-09T23:01:15.354Z,15.80
2022-09-09T23:03:45.995Z,15.80
2022-09-09T23:06:22.184Z,15.70
2022-09-09T23:08:53.270Z,15.70
2022-09-09T23:11:23.876Z,15.70
2022-09-09T23:13:54.450Z,15.70
2022-09-09T23:16:25.102Z,15.60
2022-09-09T23:18:55.096Z,15.60
2022-09-09T23:21:26.283Z,15.60
2022-09-09T23:23:55.408Z,15.60
2022-09-09T23:26:25.841Z,15.60
2022-09-09T23:28:58.266Z,15.60
2022-09-09T23:31:29.098Z,15.60
2022-09-09T23:33:58.231Z,15.60
2022-09-09T23:36:29.419Z,15.50
2022-09-09T23:38:58.335Z,15.50
2022-09-09T23:41:28.128Z,15.50
2022-09-09T23:43:56.449Z,15.50
2022-09-09T23:46:28.448Z,15.40
2022-09-09T23:48:58.073Z,15.40
2022-09-09T23:51:30.297Z,15.40
2022-09-09T23:54:02.815Z,15.40
2022-09-09T23:56:34.473Z,15.40
2022-09-09T23:59:02.859Z,15.30
